sensor_id;sensor_type;location;lat;lon;timestamp;P1;durP1;ratioP1;P2;durP2;ratioP2
21868;SDS011;11099;41.564;23.296;2023-05-16T00:02:01;8.27;;;4.10;;
21868;SDS011;11099;41.564;23.296;2023-05-16T00:04:27;10.50;;;4.57;;
21868;SDS011;11099;41.564;23.296;2023-05-16T00:06:52;7.95;;;4.13;;
21868;SDS011;11099;41.564;23.296;2023-05-16T00:09:19;7.38;;;4.45;;
21868;SDS011;11099;41.564;23.296;2023-05-16T00:11:44;9.48;;;4.38;;
21868;SDS011;11099;41.564;23.296;2023-05-16T00:14:12;7.30;;;4.30;;
21868;SDS011;11099;41.564;23.296;2023-05-16T00:16:38;6.90;;;4.70;;
21868;SDS011;11099;41.564;23.296;2023-05-16T00:19:05;10.00;;;4.20;;
21868;SDS011;11099;41.564;23.296;2023-05-16T00:21:31;7.13;;;4.65;;
21868;SDS011;11099;41.564;23.296;2023-05-16T00:23:56;7.38;;;4.70;;
21868;SDS011;11099;41.564;23.296;2023-05-16T00:26:22;5.85;;;4.18;;
21868;SDS011;11099;41.564;23.296;2023-05-16T00:28:47;5.40;;;4.88;;
21868;SDS011;11099;41.564;23.296;2023-05-16T00:31:13;10.63;;;4.32;;
21868;SDS011;11099;41.564;23.296;2023-05-16T00:33:38;7.00;;;4.10;;
21868;SDS011;11099;41.564;23.296;2023-05-16T00:36:04;5.78;;;3.95;;
21868;SDS011;11099;41.564;23.296;2023-05-16T00:38:30;8.77;;;4.90;;
21868;SDS011;11099;41.564;23.296;2023-05-16T00:40:55;5.75;;;4.57;;
21868;SDS011;11099;41.564;23.296;2023-05-16T00:43:21;8.50;;;4.43;;
21868;SDS011;11099;41.564;23.296;2023-05-16T00:45:46;7.72;;;4.53;;
21868;SDS011;11099;41.564;23.296;2023-05-16T00:48:12;7.35;;;4.45;;
21868;SDS011;11099;41.564;23.296;2023-05-16T00:50:40;6.18;;;4.35;;
21868;SDS011;11099;41.564;23.296;2023-05-16T00:53:06;10.05;;;4.38;;
21868;SDS011;11099;41.564;23.296;2023-05-16T00:55:32;5.03;;;4.13;;
21868;SDS011;11099;41.564;23.296;2023-05-16T00:57:57;8.80;;;4.57;;
21868;SDS011;11099;41.564;23.296;2023-05-16T01:00:26;12.48;;;4.63;;
21868;SDS011;11099;41.564;23.296;2023-05-16T01:02:52;8.68;;;4.10;;
21868;SDS011;11099;41.564;23.296;2023-05-16T01:05:20;5.10;;;4.15;;
21868;SDS011;11099;41.564;23.296;2023-05-16T01:07:46;8.88;;;4.03;;
21868;SDS011;11099;41.564;23.296;2023-05-16T01:10:11;6.88;;;4.28;;
21868;SDS011;11099;41.564;23.296;2023-05-16T01:13:00;8.50;;;4.43;;
21868;SDS011;11099;41.564;23.296;2023-05-16T01:18:42;7.15;;;3.80;;
21868;SDS011;11099;41.564;23.296;2023-05-16T01:21:48;10.07;;;4.30;;
21868;SDS011;11099;41.564;23.296;2023-05-16T01:24:33;7.03;;;4.20;;
21868;SDS011;11099;41.564;23.296;2023-05-16T01:27:07;9.00;;;4.50;;
21868;SDS011;11099;41.564;23.296;2023-05-16T01:29:35;7.88;;;3.92;;
21868;SDS011;11099;41.564;23.296;2023-05-16T01:32:07;4.93;;;3.90;;
21868;SDS011;11099;41.564;23.296;2023-05-16T01:34:33;5.75;;;3.40;;
21868;SDS011;11099;41.564;23.296;2023-05-16T01:37:02;5.68;;;3.70;;
21868;SDS011;11099;41.564;23.296;2023-05-16T01:42:13;6.03;;;3.88;;
21868;SDS011;11099;41.564;23.296;2023-05-16T01:44:51;5.07;;;3.58;;
21868;SDS011;11099;41.564;23.296;2023-05-16T01:47:24;8.55;;;3.72;;
21868;SDS011;11099;41.564;23.296;2023-05-16T01:50:07;5.38;;;3.72;;
21868;SDS011;11099;41.564;23.296;2023-05-16T01:55:03;7.55;;;4.10;;
21868;SDS011;11099;41.564;23.296;2023-05-16T01:57:30;6.88;;;3.95;;
21868;SDS011;11099;41.564;23.296;2023-05-16T01:59:57;5.15;;;4.03;;
21868;SDS011;11099;41.564;23.296;2023-05-16T02:02:23;8.88;;;4.40;;
21868;SDS011;11099;41.564;23.296;2023-05-16T02:04:50;7.50;;;3.67;;
21868;SDS011;11099;41.564;23.296;2023-05-16T02:07:20;8.50;;;4.07;;
21868;SDS011;11099;41.564;23.296;2023-05-16T02:09:46;10.60;;;3.47;;
21868;SDS011;11099;41.564;23.296;2023-05-16T02:12:11;8.07;;;3.47;;
21868;SDS011;11099;41.564;23.296;2023-05-16T02:14:37;5.45;;;3.40;;
21868;SDS011;11099;41.564;23.296;2023-05-16T02:17:02;6.72;;;3.53;;
21868;SDS011;11099;41.564;23.296;2023-05-16T02:19:28;4.43;;;3.72;;
21868;SDS011;11099;41.564;23.296;2023-05-16T02:21:53;8.63;;;4.10;;
21868;SDS011;11099;41.564;23.296;2023-05-16T02:24:19;11.27;;;4.20;;
21868;SDS011;11099;41.564;23.296;2023-05-16T02:26:45;8.00;;;4.05;;
21868;SDS011;11099;41.564;23.296;2023-05-16T02:29:10;5.80;;;3.90;;
21868;SDS011;11099;41.564;23.296;2023-05-16T02:31:36;6.88;;;4.05;;
21868;SDS011;11099;41.564;23.296;2023-05-16T02:34:02;6.43;;;4.10;;
21868;SDS011;11099;41.564;23.296;2023-05-16T02:36:27;6.07;;;4.32;;
21868;SDS011;11099;41.564;23.296;2023-05-16T02:38:53;9.95;;;4.28;;
21868;SDS011;11099;41.564;23.296;2023-05-16T02:41:19;5.50;;;3.80;;
21868;SDS011;11099;41.564;23.296;2023-05-16T02:43:46;6.25;;;4.35;;
21868;SDS011;11099;41.564;23.296;2023-05-16T02:46:30;6.70;;;4.15;;
21868;SDS011;11099;41.564;23.296;2023-05-16T02:48:57;6.53;;;3.60;;
21868;SDS011;11099;41.564;23.296;2023-05-16T02:51:25;4.43;;;4.00;;
21868;SDS011;11099;41.564;23.296;2023-05-16T02:53:52;7.85;;;3.72;;
21868;SDS011;11099;41.564;23.296;2023-05-16T02:56:18;10.52;;;4.50;;
21868;SDS011;11099;41.564;23.296;2023-05-16T02:58:46;6.82;;;4.50;;
21868;SDS011;11099;41.564;23.296;2023-05-16T03:01:12;8.30;;;5.15;;
21868;SDS011;11099;41.564;23.296;2023-05-16T03:03:39;9.45;;;4.60;;
21868;SDS011;11099;41.564;23.296;2023-05-16T03:06:05;11.38;;;4.15;;
21868;SDS011;11099;41.564;23.296;2023-05-16T03:08:31;9.07;;;4.50;;
21868;SDS011;11099;41.564;23.296;2023-05-16T03:10:56;11.07;;;4.82;;
21868;SDS011;11099;41.564;23.296;2023-05-16T03:13:22;8.18;;;5.18;;
21868;SDS011;11099;41.564;23.296;2023-05-16T03:15:48;10.07;;;5.10;;
21868;SDS011;11099;41.564;23.296;2023-05-16T03:18:14;7.55;;;4.65;;
21868;SDS011;11099;41.564;23.296;2023-05-16T03:20:39;12.35;;;5.53;;
21868;SDS011;11099;41.564;23.296;2023-05-16T03:23:05;9.02;;;5.40;;
21868;SDS011;11099;41.564;23.296;2023-05-16T03:25:33;6.40;;;4.20;;
21868;SDS011;11099;41.564;23.296;2023-05-16T03:28:00;5.97;;;4.75;;
21868;SDS011;11099;41.564;23.296;2023-05-16T03:30:27;9.40;;;4.80;;
21868;SDS011;11099;41.564;23.296;2023-05-16T03:32:52;8.27;;;4.20;;
21868;SDS011;11099;41.564;23.296;2023-05-16T03:35:18;7.03;;;4.30;;
21868;SDS011;11099;41.564;23.296;2023-05-16T03:37:43;5.63;;;3.85;;
21868;SDS011;11099;41.564;23.296;2023-05-16T03:40:09;14.88;;;4.80;;
21868;SDS011;11099;41.564;23.296;2023-05-16T03:42:35;4.32;;;3.92;;
21868;SDS011;11099;41.564;23.296;2023-05-16T03:45:01;5.93;;;3.78;;
21868;SDS011;11099;41.564;23.296;2023-05-16T03:47:27;9.35;;;4.22;;
21868;SDS011;11099;41.564;23.296;2023-05-16T03:49:55;6.72;;;4.55;;
21868;SDS011;11099;41.564;23.296;2023-05-16T03:52:20;5.10;;;3.78;;
21868;SDS011;11099;41.564;23.296;2023-05-16T03:54:46;7.93;;;4.78;;
21868;SDS011;11099;41.564;23.296;2023-05-16T03:57:12;6.65;;;4.20;;
21868;SDS011;11099;41.564;23.296;2023-05-16T03:59:37;10.25;;;4.50;;
21868;SDS011;11099;41.564;23.296;2023-05-16T04:02:03;7.55;;;4.53;;
21868;SDS011;11099;41.564;23.296;2023-05-16T04:04:29;11.45;;;4.00;;
21868;SDS011;11099;41.564;23.296;2023-05-16T04:06:54;8.82;;;3.85;;
21868;SDS011;11099;41.564;23.296;2023-05-16T04:09:20;8.48;;;3.85;;
21868;SDS011;11099;41.564;23.296;2023-05-16T04:11:46;9.70;;;3.72;;
21868;SDS011;11099;41.564;23.296;2023-05-16T04:14:12;5.03;;;3.22;;
21868;SDS011;11099;41.564;23.296;2023-05-16T04:16:38;5.95;;;3.88;;
21868;SDS011;11099;41.564;23.296;2023-05-16T04:19:03;8.68;;;3.58;;
21868;SDS011;11099;41.564;23.296;2023-05-16T04:21:28;6.75;;;3.72;;
21868;SDS011;11099;41.564;23.296;2023-05-16T04:23:54;12.45;;;4.13;;
21868;SDS011;11099;41.564;23.296;2023-05-16T04:26:21;14.75;;;3.58;;
21868;SDS011;11099;41.564;23.296;2023-05-16T04:28:47;6.13;;;3.53;;
21868;SDS011;11099;41.564;23.296;2023-05-16T04:31:12;5.95;;;3.70;;
21868;SDS011;11099;41.564;23.296;2023-05-16T04:33:39;8.32;;;4.20;;
21868;SDS011;11099;41.564;23.296;2023-05-16T04:36:04;8.55;;;4.35;;
21868;SDS011;11099;41.564;23.296;2023-05-16T04:38:30;7.57;;;4.35;;
21868;SDS011;11099;41.564;23.296;2023-05-16T04:40:56;8.35;;;4.70;;
21868;SDS011;11099;41.564;23.296;2023-05-16T04:43:22;10.02;;;5.22;;
21868;SDS011;11099;41.564;23.296;2023-05-16T04:45:48;15.23;;;6.25;;
21868;SDS011;11099;41.564;23.296;2023-05-16T04:48:14;13.65;;;5.70;;
21868;SDS011;11099;41.564;23.296;2023-05-16T04:50:40;12.77;;;5.85;;
21868;SDS011;11099;41.564;23.296;2023-05-16T04:53:06;13.80;;;5.07;;
21868;SDS011;11099;41.564;23.296;2023-05-16T04:55:31;9.02;;;4.15;;
21868;SDS011;11099;41.564;23.296;2023-05-16T04:57:57;13.05;;;5.90;;
21868;SDS011;11099;41.564;23.296;2023-05-16T05:00:22;9.60;;;4.30;;
21868;SDS011;11099;41.564;23.296;2023-05-16T05:02:48;7.95;;;3.75;;
21868;SDS011;11099;41.564;23.296;2023-05-16T05:05:14;10.43;;;4.60;;
21868;SDS011;11099;41.564;23.296;2023-05-16T05:07:39;7.68;;;5.10;;
21868;SDS011;11099;41.564;23.296;2023-05-16T05:10:05;10.05;;;4.95;;
21868;SDS011;11099;41.564;23.296;2023-05-16T05:12:31;9.88;;;4.57;;
21868;SDS011;11099;41.564;23.296;2023-05-16T05:14:57;8.13;;;5.15;;
21868;SDS011;11099;41.564;23.296;2023-05-16T05:17:23;10.27;;;4.45;;
21868;SDS011;11099;41.564;23.296;2023-05-16T05:19:48;8.25;;;5.07;;
21868;SDS011;11099;41.564;23.296;2023-05-16T05:22:14;10.85;;;4.72;;
21868;SDS011;11099;41.564;23.296;2023-05-16T05:24:40;10.93;;;5.95;;
21868;SDS011;11099;41.564;23.296;2023-05-16T05:27:05;9.60;;;6.68;;
21868;SDS011;11099;41.564;23.296;2023-05-16T05:29:31;16.17;;;6.32;;
21868;SDS011;11099;41.564;23.296;2023-05-16T05:31:56;14.82;;;4.63;;
21868;SDS011;11099;41.564;23.296;2023-05-16T05:34:22;8.95;;;5.10;;
21868;SDS011;11099;41.564;23.296;2023-05-16T05:36:47;9.35;;;4.35;;
21868;SDS011;11099;41.564;23.296;2023-05-16T05:39:13;11.75;;;5.70;;
21868;SDS011;11099;41.564;23.296;2023-05-16T05:41:39;8.88;;;4.10;;
21868;SDS011;11099;41.564;23.296;2023-05-16T05:44:04;9.15;;;4.70;;
21868;SDS011;11099;41.564;23.296;2023-05-16T05:46:31;10.50;;;5.63;;
21868;SDS011;11099;41.564;23.296;2023-05-16T05:48:57;15.95;;;6.38;;
21868;SDS011;11099;41.564;23.296;2023-05-16T05:51:23;11.02;;;5.68;;
21868;SDS011;11099;41.564;23.296;2023-05-16T05:53:50;9.85;;;5.22;;
21868;SDS011;11099;41.564;23.296;2023-05-16T05:56:16;14.45;;;5.75;;
21868;SDS011;11099;41.564;23.296;2023-05-16T05:58:42;13.68;;;5.90;;
21868;SDS011;11099;41.564;23.296;2023-05-16T06:01:09;9.48;;;5.25;;
21868;SDS011;11099;41.564;23.296;2023-05-16T06:03:35;11.50;;;5.43;;
21868;SDS011;11099;41.564;23.296;2023-05-16T06:06:00;9.85;;;4.65;;
21868;SDS011;11099;41.564;23.296;2023-05-16T06:08:30;9.95;;;5.15;;
21868;SDS011;11099;41.564;23.296;2023-05-16T06:13:22;5.95;;;4.63;;
21868;SDS011;11099;41.564;23.296;2023-05-16T06:15:51;5.90;;;4.43;;
21868;SDS011;11099;41.564;23.296;2023-05-16T06:18:17;8.15;;;3.88;;
21868;SDS011;11099;41.564;23.296;2023-05-16T06:20:42;10.45;;;5.57;;
21868;SDS011;11099;41.564;23.296;2023-05-16T06:23:08;13.38;;;5.55;;
21868;SDS011;11099;41.564;23.296;2023-05-16T06:25:33;9.85;;;4.18;;
21868;SDS011;11099;41.564;23.296;2023-05-16T06:27:59;7.82;;;3.97;;
21868;SDS011;11099;41.564;23.296;2023-05-16T06:30:24;12.63;;;5.45;;
21868;SDS011;11099;41.564;23.296;2023-05-16T06:32:50;14.18;;;4.10;;
21868;SDS011;11099;41.564;23.296;2023-05-16T06:35:15;12.52;;;4.80;;
21868;SDS011;11099;41.564;23.296;2023-05-16T06:37:41;8.80;;;5.10;;
21868;SDS011;11099;41.564;23.296;2023-05-16T06:40:06;6.00;;;4.90;;
21868;SDS011;11099;41.564;23.296;2023-05-16T06:42:32;7.18;;;4.85;;
21868;SDS011;11099;41.564;23.296;2023-05-16T06:44:58;14.43;;;5.38;;
21868;SDS011;11099;41.564;23.296;2023-05-16T06:47:23;8.30;;;5.15;;
21868;SDS011;11099;41.564;23.296;2023-05-16T06:49:49;17.58;;;4.75;;
21868;SDS011;11099;41.564;23.296;2023-05-16T06:52:15;16.95;;;4.43;;
21868;SDS011;11099;41.564;23.296;2023-05-16T06:54:42;10.68;;;4.65;;
21868;SDS011;11099;41.564;23.296;2023-05-16T06:57:08;11.02;;;4.43;;
21868;SDS011;11099;41.564;23.296;2023-05-16T06:59:34;9.98;;;4.97;;
21868;SDS011;11099;41.564;23.296;2023-05-16T07:02:00;19.13;;;6.00;;
21868;SDS011;11099;41.564;23.296;2023-05-16T07:04:26;12.40;;;5.65;;
21868;SDS011;11099;41.564;23.296;2023-05-16T07:06:52;7.28;;;5.32;;
21868;SDS011;11099;41.564;23.296;2023-05-16T07:09:18;13.55;;;6.35;;
21868;SDS011;11099;41.564;23.296;2023-05-16T07:11:44;8.48;;;5.30;;
21868;SDS011;11099;41.564;23.296;2023-05-16T07:14:10;8.02;;;4.50;;
21868;SDS011;11099;41.564;23.296;2023-05-16T07:16:36;10.25;;;5.22;;
21868;SDS011;11099;41.564;23.296;2023-05-16T07:19:01;11.38;;;4.80;;
21868;SDS011;11099;41.564;23.296;2023-05-16T07:21:27;10.02;;;4.70;;
21868;SDS011;11099;41.564;23.296;2023-05-16T07:23:53;10.75;;;4.50;;
21868;SDS011;11099;41.564;23.296;2023-05-16T07:26:19;5.75;;;4.10;;
21868;SDS011;11099;41.564;23.296;2023-05-16T07:28:47;10.38;;;4.15;;
21868;SDS011;11099;41.564;23.296;2023-05-16T07:31:13;8.10;;;4.20;;
21868;SDS011;11099;41.564;23.296;2023-05-16T07:33:40;7.30;;;4.18;;
21868;SDS011;11099;41.564;23.296;2023-05-16T07:36:06;6.78;;;4.10;;
21868;SDS011;11099;41.564;23.296;2023-05-16T07:38:32;5.97;;;3.90;;
21868;SDS011;11099;41.564;23.296;2023-05-16T07:40:57;9.90;;;3.92;;
21868;SDS011;11099;41.564;23.296;2023-05-16T07:43:23;10.18;;;6.40;;
21868;SDS011;11099;41.564;23.296;2023-05-16T07:45:48;9.35;;;5.05;;
21868;SDS011;11099;41.564;23.296;2023-05-16T07:48:14;9.40;;;4.93;;
21868;SDS011;11099;41.564;23.296;2023-05-16T07:50:40;6.30;;;3.88;;
21868;SDS011;11099;41.564;23.296;2023-05-16T07:53:06;9.75;;;4.50;;
21868;SDS011;11099;41.564;23.296;2023-05-16T07:55:32;9.43;;;4.22;;
21868;SDS011;11099;41.564;23.296;2023-05-16T07:57:57;8.80;;;4.28;;
21868;SDS011;11099;41.564;23.296;2023-05-16T08:00:23;11.48;;;4.63;;
21868;SDS011;11099;41.564;23.296;2023-05-16T08:02:48;8.07;;;4.18;;
21868;SDS011;11099;41.564;23.296;2023-05-16T08:05:15;9.95;;;4.25;;
21868;SDS011;11099;41.564;23.296;2023-05-16T08:07:40;6.75;;;4.75;;
21868;SDS011;11099;41.564;23.296;2023-05-16T08:10:06;6.30;;;4.13;;
21868;SDS011;11099;41.564;23.296;2023-05-16T08:12:32;10.57;;;4.60;;
21868;SDS011;11099;41.564;23.296;2023-05-16T08:14:59;19.30;;;5.07;;
21868;SDS011;11099;41.564;23.296;2023-05-16T08:17:24;6.65;;;3.67;;
21868;SDS011;11099;41.564;23.296;2023-05-16T08:19:49;14.45;;;5.30;;
21868;SDS011;11099;41.564;23.296;2023-05-16T08:22:16;9.85;;;5.05;;
21868;SDS011;11099;41.564;23.296;2023-05-16T08:24:50;11.80;;;5.50;;
21868;SDS011;11099;41.564;23.296;2023-05-16T08:27:16;4.35;;;2.80;;
21868;SDS011;11099;41.564;23.296;2023-05-16T08:29:41;12.38;;;3.30;;
21868;SDS011;11099;41.564;23.296;2023-05-16T08:32:07;10.85;;;3.25;;
21868;SDS011;11099;41.564;23.296;2023-05-16T08:34:35;4.78;;;3.20;;
21868;SDS011;11099;41.564;23.296;2023-05-16T08:37:01;8.32;;;3.22;;
21868;SDS011;11099;41.564;23.296;2023-05-16T08:39:26;11.63;;;4.03;;
21868;SDS011;11099;41.564;23.296;2023-05-16T08:41:52;7.68;;;2.97;;
21868;SDS011;11099;41.564;23.296;2023-05-16T08:44:17;13.63;;;4.50;;
21868;SDS011;11099;41.564;23.296;2023-05-16T08:46:52;11.07;;;4.10;;
21868;SDS011;11099;41.564;23.296;2023-05-16T08:49:19;8.77;;;3.15;;
21868;SDS011;11099;41.564;23.296;2023-05-16T08:51:45;9.85;;;3.95;;
21868;SDS011;11099;41.564;23.296;2023-05-16T08:54:13;10.82;;;4.05;;
21868;SDS011;11099;41.564;23.296;2023-05-16T08:56:41;16.00;;;4.60;;
21868;SDS011;11099;41.564;23.296;2023-05-16T08:59:08;13.07;;;5.10;;
21868;SDS011;11099;41.564;23.296;2023-05-16T09:01:35;7.75;;;4.13;;
21868;SDS011;11099;41.564;23.296;2023-05-16T09:04:01;9.23;;;4.10;;
21868;SDS011;11099;41.564;23.296;2023-05-16T09:06:28;5.85;;;3.88;;
21868;SDS011;11099;41.564;23.296;2023-05-16T09:08:53;12.52;;;3.63;;
21868;SDS011;11099;41.564;23.296;2023-05-16T09:11:19;10.05;;;4.97;;
21868;SDS011;11099;41.564;23.296;2023-05-16T09:13:46;12.32;;;5.53;;
21868;SDS011;11099;41.564;23.296;2023-05-16T09:16:13;10.00;;;3.95;;
21868;SDS011;11099;41.564;23.296;2023-05-16T09:18:42;12.68;;;3.90;;
21868;SDS011;11099;41.564;23.296;2023-05-16T09:21:08;10.60;;;3.90;;
21868;SDS011;11099;41.564;23.296;2023-05-16T09:23:36;11.73;;;3.40;;
21868;SDS011;11099;41.564;23.296;2023-05-16T09:26:03;12.07;;;3.45;;
21868;SDS011;11099;41.564;23.296;2023-05-16T09:28:35;7.40;;;4.40;;
21868;SDS011;11099;41.564;23.296;2023-05-16T09:31:25;6.57;;;4.20;;
21868;SDS011;11099;41.564;23.296;2023-05-16T09:33:56;12.93;;;3.72;;
21868;SDS011;11099;41.564;23.296;2023-05-16T09:36:24;6.40;;;4.35;;
21868;SDS011;11099;41.564;23.296;2023-05-16T09:38:52;10.50;;;4.55;;
21868;SDS011;11099;41.564;23.296;2023-05-16T09:41:18;12.65;;;4.68;;
21868;SDS011;11099;41.564;23.296;2023-05-16T09:43:46;10.73;;;6.13;;
21868;SDS011;11099;41.564;23.296;2023-05-16T09:46:12;9.38;;;4.30;;
21868;SDS011;11099;41.564;23.296;2023-05-16T09:48:44;5.50;;;4.60;;
21868;SDS011;11099;41.564;23.296;2023-05-16T09:51:11;7.35;;;4.28;;
21868;SDS011;11099;41.564;23.296;2023-05-16T09:53:37;8.55;;;3.83;;
21868;SDS011;11099;41.564;23.296;2023-05-16T09:56:05;8.65;;;4.50;;
21868;SDS011;11099;41.564;23.296;2023-05-16T09:58:35;10.82;;;5.22;;
21868;SDS011;11099;41.564;23.296;2023-05-16T10:01:02;8.00;;;4.38;;
21868;SDS011;11099;41.564;23.296;2023-05-16T10:03:28;8.55;;;3.70;;
21868;SDS011;11099;41.564;23.296;2023-05-16T10:05:54;8.18;;;3.92;;
21868;SDS011;11099;41.564;23.296;2023-05-16T10:08:21;9.48;;;4.70;;
21868;SDS011;11099;41.564;23.296;2023-05-16T10:10:52;8.32;;;4.57;;
21868;SDS011;11099;41.564;23.296;2023-05-16T10:13:28;6.28;;;3.53;;
21868;SDS011;11099;41.564;23.296;2023-05-16T10:15:56;9.98;;;4.18;;
21868;SDS011;11099;41.564;23.296;2023-05-16T10:18:23;10.75;;;3.95;;
21868;SDS011;11099;41.564;23.296;2023-05-16T10:20:56;7.53;;;4.00;;
21868;SDS011;11099;41.564;23.296;2023-05-16T10:23:28;7.50;;;3.85;;
21868;SDS011;11099;41.564;23.296;2023-05-16T10:26:02;6.15;;;3.58;;
21868;SDS011;11099;41.564;23.296;2023-05-16T10:28:28;8.05;;;4.03;;
21868;SDS011;11099;41.564;23.296;2023-05-16T10:30:54;10.80;;;4.03;;
21868;SDS011;11099;41.564;23.296;2023-05-16T10:33:20;9.73;;;4.13;;
21868;SDS011;11099;41.564;23.296;2023-05-16T10:35:46;9.18;;;4.28;;
21868;SDS011;11099;41.564;23.296;2023-05-16T10:38:12;8.05;;;3.92;;
21868;SDS011;11099;41.564;23.296;2023-05-16T10:40:40;10.50;;;4.53;;
21868;SDS011;11099;41.564;23.296;2023-05-16T10:43:07;15.00;;;7.25;;
21868;SDS011;11099;41.564;23.296;2023-05-16T10:45:33;11.43;;;5.22;;
21868;SDS011;11099;41.564;23.296;2023-05-16T10:48:04;17.00;;;5.75;;
21868;SDS011;11099;41.564;23.296;2023-05-16T10:53:12;10.43;;;3.90;;
21868;SDS011;11099;41.564;23.296;2023-05-16T10:58:03;11.55;;;5.40;;
21868;SDS011;11099;41.564;23.296;2023-05-16T11:00:29;14.45;;;4.57;;
21868;SDS011;11099;41.564;23.296;2023-05-16T11:03:03;8.02;;;5.63;;
21868;SDS011;11099;41.564;23.296;2023-05-16T11:05:29;14.63;;;5.25;;
21868;SDS011;11099;41.564;23.296;2023-05-16T11:08:02;11.38;;;5.22;;
21868;SDS011;11099;41.564;23.296;2023-05-16T11:10:30;13.30;;;6.90;;
21868;SDS011;11099;41.564;23.296;2023-05-16T11:12:57;11.32;;;5.63;;
21868;SDS011;11099;41.564;23.296;2023-05-16T11:15:30;9.13;;;5.05;;
21868;SDS011;11099;41.564;23.296;2023-05-16T11:18:09;11.30;;;5.35;;
21868;SDS011;11099;41.564;23.296;2023-05-16T11:20:39;17.42;;;5.47;;
21868;SDS011;11099;41.564;23.296;2023-05-16T11:25:56;19.70;;;5.70;;
21868;SDS011;11099;41.564;23.296;2023-05-16T11:28:24;16.13;;;8.05;;
21868;SDS011;11099;41.564;23.296;2023-05-16T11:30:52;16.80;;;6.57;;
21868;SDS011;11099;41.564;23.296;2023-05-16T11:33:20;13.75;;;6.55;;
21868;SDS011;11099;41.564;23.296;2023-05-16T11:36:02;18.17;;;7.50;;
21868;SDS011;11099;41.564;23.296;2023-05-16T11:38:32;12.98;;;6.53;;
21868;SDS011;11099;41.564;23.296;2023-05-16T11:41:02;15.98;;;6.60;;
21868;SDS011;11099;41.564;23.296;2023-05-16T11:43:28;15.05;;;6.70;;
21868;SDS011;11099;41.564;23.296;2023-05-16T11:45:54;18.80;;;7.28;;
21868;SDS011;11099;41.564;23.296;2023-05-16T11:48:24;12.05;;;6.50;;
21868;SDS011;11099;41.564;23.296;2023-05-16T11:50:49;10.43;;;5.57;;
21868;SDS011;11099;41.564;23.296;2023-05-16T11:53:17;14.82;;;6.10;;
21868;SDS011;11099;41.564;23.296;2023-05-16T11:55:44;10.65;;;6.43;;
21868;SDS011;11099;41.564;23.296;2023-05-16T11:58:16;14.35;;;6.95;;
21868;SDS011;11099;41.564;23.296;2023-05-16T12:00:48;15.85;;;8.43;;
21868;SDS011;11099;41.564;23.296;2023-05-16T12:03:16;20.83;;;7.15;;
21868;SDS011;11099;41.564;23.296;2023-05-16T12:05:49;17.48;;;8.32;;
21868;SDS011;11099;41.564;23.296;2023-05-16T12:08:17;19.50;;;14.15;;
21868;SDS011;11099;41.564;23.296;2023-05-16T12:10:46;19.13;;;9.43;;
21868;SDS011;11099;41.564;23.296;2023-05-16T12:13:13;15.80;;;9.55;;
21868;SDS011;11099;41.564;23.296;2023-05-16T12:15:39;26.60;;;13.98;;
21868;SDS011;11099;41.564;23.296;2023-05-16T12:18:06;17.52;;;8.63;;
21868;SDS011;11099;41.564;23.296;2023-05-16T12:20:32;12.85;;;6.72;;
21868;SDS011;11099;41.564;23.296;2023-05-16T12:22:58;11.75;;;5.88;;
21868;SDS011;11099;41.564;23.296;2023-05-16T12:25:28;13.98;;;5.47;;
21868;SDS011;11099;41.564;23.296;2023-05-16T12:28:00;13.52;;;5.35;;
21868;SDS011;11099;41.564;23.296;2023-05-16T12:30:27;8.93;;;4.75;;
21868;SDS011;11099;41.564;23.296;2023-05-16T12:35:28;12.38;;;5.63;;
21868;SDS011;11099;41.564;23.296;2023-05-16T12:37:55;7.00;;;4.72;;
21868;SDS011;11099;41.564;23.296;2023-05-16T12:40:20;12.25;;;5.10;;
21868;SDS011;11099;41.564;23.296;2023-05-16T12:42:52;8.50;;;5.45;;
21868;SDS011;11099;41.564;23.296;2023-05-16T12:45:18;9.93;;;5.35;;
21868;SDS011;11099;41.564;23.296;2023-05-16T12:47:44;7.05;;;4.75;;
21868;SDS011;11099;41.564;23.296;2023-05-16T12:50:11;12.27;;;5.53;;
21868;SDS011;11099;41.564;23.296;2023-05-16T12:52:50;9.75;;;5.65;;
21868;SDS011;11099;41.564;23.296;2023-05-16T12:55:17;8.90;;;5.22;;
21868;SDS011;11099;41.564;23.296;2023-05-16T12:57:45;16.80;;;6.03;;
21868;SDS011;11099;41.564;23.296;2023-05-16T13:00:17;11.77;;;6.65;;
21868;SDS011;11099;41.564;23.296;2023-05-16T13:02:44;9.70;;;5.80;;
21868;SDS011;11099;41.564;23.296;2023-05-16T13:05:11;10.00;;;5.80;;
21868;SDS011;11099;41.564;23.296;2023-05-16T13:07:37;13.77;;;5.97;;
21868;SDS011;11099;41.564;23.296;2023-05-16T13:10:05;12.43;;;6.68;;
21868;SDS011;11099;41.564;23.296;2023-05-16T13:12:39;13.23;;;7.63;;
21868;SDS011;11099;41.564;23.296;2023-05-16T13:15:06;11.80;;;6.30;;
21868;SDS011;11099;41.564;23.296;2023-05-16T13:17:34;13.43;;;6.43;;
21868;SDS011;11099;41.564;23.296;2023-05-16T13:20:00;11.05;;;6.28;;
21868;SDS011;11099;41.564;23.296;2023-05-16T13:22:28;13.68;;;6.22;;
21868;SDS011;11099;41.564;23.296;2023-05-16T13:24:54;14.20;;;7.38;;
21868;SDS011;11099;41.564;23.296;2023-05-16T13:27:20;15.02;;;6.45;;
21868;SDS011;11099;41.564;23.296;2023-05-16T13:29:46;12.18;;;6.70;;
21868;SDS011;11099;41.564;23.296;2023-05-16T13:32:11;13.93;;;6.97;;
21868;SDS011;11099;41.564;23.296;2023-05-16T13:34:37;17.90;;;7.80;;
21868;SDS011;11099;41.564;23.296;2023-05-16T13:37:03;13.70;;;6.65;;
21868;SDS011;11099;41.564;23.296;2023-05-16T13:39:28;9.52;;;6.85;;
21868;SDS011;11099;41.564;23.296;2023-05-16T13:41:54;17.50;;;10.18;;
21868;SDS011;11099;41.564;23.296;2023-05-16T13:44:20;15.05;;;7.20;;
21868;SDS011;11099;41.564;23.296;2023-05-16T13:46:46;17.63;;;7.00;;
21868;SDS011;11099;41.564;23.296;2023-05-16T13:49:12;12.32;;;7.53;;
21868;SDS011;11099;41.564;23.296;2023-05-16T13:51:38;15.02;;;6.88;;
21868;SDS011;11099;41.564;23.296;2023-05-16T13:54:04;11.75;;;6.32;;
21868;SDS011;11099;41.564;23.296;2023-05-16T13:56:29;12.52;;;6.90;;
21868;SDS011;11099;41.564;23.296;2023-05-16T13:58:55;16.30;;;7.35;;
21868;SDS011;11099;41.564;23.296;2023-05-16T14:01:20;15.60;;;7.55;;
21868;SDS011;11099;41.564;23.296;2023-05-16T14:03:46;13.38;;;9.88;;
21868;SDS011;11099;41.564;23.296;2023-05-16T14:06:11;13.73;;;8.93;;
21868;SDS011;11099;41.564;23.296;2023-05-16T14:08:37;16.80;;;9.30;;
21868;SDS011;11099;41.564;23.296;2023-05-16T14:11:04;12.85;;;7.85;;
21868;SDS011;11099;41.564;23.296;2023-05-16T14:13:29;11.23;;;6.93;;
21868;SDS011;11099;41.564;23.296;2023-05-16T14:15:55;17.38;;;9.57;;
21868;SDS011;11099;41.564;23.296;2023-05-16T14:18:20;13.77;;;8.13;;
21868;SDS011;11099;41.564;23.296;2023-05-16T14:20:46;14.15;;;8.65;;
21868;SDS011;11099;41.564;23.296;2023-05-16T14:23:11;11.80;;;9.13;;
21868;SDS011;11099;41.564;23.296;2023-05-16T14:25:37;19.88;;;13.25;;
21868;SDS011;11099;41.564;23.296;2023-05-16T14:28:03;15.15;;;9.80;;
21868;SDS011;11099;41.564;23.296;2023-05-16T14:30:29;15.73;;;10.27;;
21868;SDS011;11099;41.564;23.296;2023-05-16T14:32:55;14.43;;;9.63;;
21868;SDS011;11099;41.564;23.296;2023-05-16T14:35:21;12.80;;;8.27;;
21868;SDS011;11099;41.564;23.296;2023-05-16T14:37:46;18.38;;;10.60;;
21868;SDS011;11099;41.564;23.296;2023-05-16T14:40:11;14.10;;;10.05;;
21868;SDS011;11099;41.564;23.296;2023-05-16T14:42:37;24.48;;;13.07;;
21868;SDS011;11099;41.564;23.296;2023-05-16T14:45:04;19.50;;;12.32;;
21868;SDS011;11099;41.564;23.296;2023-05-16T14:47:30;16.13;;;12.13;;
21868;SDS011;11099;41.564;23.296;2023-05-16T14:49:56;30.73;;;18.88;;